Time;durP1;ratioP1;P1;durP2;ratioP2;P2;SDS_P1;SDS_P2;PMS_P1;PMS_P2;Temp;Humidity;BMP_temperature;BMP_pressure;BME280_temperature;BME280_humidity;BME280_pressure;Samples;Min_cycle;Max_cycle;Signal;HPM_P1;HPM_P2
2023/02/16 00:00:29;;;;;;;8.73;6.05;;;1.10;99.90;;;;;;5090261;28;20619;-69
2023/02/16 00:02:58;;;;;;;9.23;6.55;;;1.10;99.90;;;;;;5090201;28;20288;-69
2023/02/16 00:05:27;;;;;;;7.30;5.50;;;1.10;99.90;;;;;;5090088;28;20423;-68
2023/02/16 00:07:55;;;;;;;10.00;5.47;;;1.10;99.90;;;;;;5090602;28;20637;-70
2023/02/16 00:10:22;;;;;;;13.82;6.63;;;1.00;99.90;;;;;;5090464;28;20206;-69
2023/02/16 00:15:34;;;;;;;10.43;5.85;;;1.00;99.90;;;;;;5090358;28;20561;-69
2023/02/16 00:18:03;;;;;;;12.35;6.25;;;1.00;99.90;;;;;;5089902;28;20219;-69
2023/02/16 00:20:30;;;;;;;9.63;6.35;;;1.00;99.90;;;;;;5090159;28;20252;-70
2023/02/16 00:22:56;;;;;;;11.02;5.20;;;1.00;99.90;;;;;;5089836;28;20253;-70
2023/02/16 00:25:24;;;;;;;7.35;5.03;;;1.00;99.90;;;;;;5095128;28;20195;-69
2023/02/16 00:27:51;;;;;;;8.85;5.95;;;1.00;99.90;;;;;;5110238;28;20223;-69
2023/02/16 00:30:20;;;;;;;13.02;5.82;;;1.00;99.90;;;;;;5110373;28;20203;-70
2023/02/16 00:32:47;;;;;;;9.38;5.72;;;0.90;99.90;;;;;;5110183;28;20206;-70
2023/02/16 00:35:16;;;;;;;10.38;6.45;;;0.90;99.90;;;;;;5110102;28;20662;-70
2023/02/16 00:37:43;;;;;;;7.10;5.72;;;0.90;99.90;;;;;;5110206;28;20268;-68
2023/02/16 00:40:11;;;;;;;10.45;5.38;;;0.90;99.90;;;;;;5110591;28;20232;-69
2023/02/16 00:42:38;;;;;;;6.68;4.40;;;0.80;99.90;;;;;;5109779;28;20222;-69
2023/02/16 00:45:12;;;;;;;9.20;4.90;;;0.70;99.90;;;;;;5110062;28;20601;-69
2023/02/16 00:47:40;;;;;;;8.18;5.25;;;0.70;99.90;;;;;;5110050;28;20234;-70
2023/02/16 00:50:17;;;;;;;15.90;5.95;;;0.70;99.90;;;;;;5109822;28;20199;-69
2023/02/16 00:52:45;;;;;;;8.35;5.30;;;0.70;99.90;;;;;;5109958;28;20202;-69
2023/02/16 00:55:14;;;;;;;10.82;6.82;;;0.70;99.90;;;;;;5110390;28;20929;-70
2023/02/16 00:57:45;;;;;;;8.85;5.18;;;0.60;99.90;;;;;;5109789;28;20271;-69
2023/02/16 01:00:16;;;;;;;7.13;5.05;;;0.60;99.90;;;;;;5110106;28;20207;-69
2023/02/16 01:02:44;;;;;;;7.10;5.60;;;0.60;99.90;;;;;;5110095;28;20234;-69
2023/02/16 01:05:11;;;;;;;8.48;5.20;;;0.50;99.90;;;;;;5109654;28;20498;-69
2023/02/16 01:13:11;;;;;;;12.27;7.03;;;0.50;99.90;;;;;;5110006;28;20781;-69
2023/02/16 01:15:38;;;;;;;9.30;6.55;;;0.50;99.90;;;;;;5110085;28;20203;-69
2023/02/16 01:18:05;;;;;;;11.90;6.07;;;0.50;99.90;;;;;;5109757;28;20237;-69
2023/02/16 01:20:34;;;;;;;7.53;5.18;;;0.40;99.90;;;;;;5109691;28;20207;-69
2023/02/16 01:23:02;;;;;;;10.45;5.57;;;0.40;99.90;;;;;;5109248;28;20696;-69
2023/02/16 01:25:28;;;;;;;12.50;5.05;;;0.50;99.90;;;;;;5111700;28;20682;-70
2023/02/16 01:27:55;;;;;;;8.73;5.88;;;0.50;99.90;;;;;;5113587;28;20219;-70
2023/02/16 01:30:23;;;;;;;9.00;5.38;;;0.40;99.90;;;;;;5113610;28;20195;-69
2023/02/16 01:32:51;;;;;;;6.45;4.80;;;0.40;99.90;;;;;;5113091;28;20252;-69
2023/02/16 01:35:18;;;;;;;6.85;4.88;;;0.40;99.90;;;;;;5113700;28;20232;-69
2023/02/16 01:37:45;;;;;;;7.03;5.38;;;0.40;99.90;;;;;;5113264;28;20219;-69
2023/02/16 01:40:26;;;;;;;14.60;4.97;;;0.40;99.90;;;;;;5113141;28;20256;-69
2023/02/16 01:42:57;;;;;;;6.50;4.93;;;0.40;99.90;;;;;;5113246;28;20230;-69
2023/02/16 01:45:29;;;;;;;6.70;4.15;;;0.30;99.90;;;;;;5113403;28;20202;-69
2023/02/16 01:48:02;;;;;;;11.32;5.68;;;0.40;99.90;;;;;;5112836;28;20223;-70
2023/02/16 01:50:40;;;;;;;7.15;5.07;;;0.30;99.90;;;;;;5110459;28;20571;-69
2023/02/16 01:53:15;;;;;;;8.02;5.50;;;0.40;99.90;;;;;;5113185;28;20195;-70
2023/02/16 01:55:46;;;;;;;6.60;4.57;;;0.40;99.90;;;;;;5113051;28;20199;-70
2023/02/16 01:58:19;;;;;;;7.75;4.25;;;0.30;99.90;;;;;;5113083;28;20221;-69
2023/02/16 02:01:22;;;;;;;8.85;4.57;;;0.30;99.90;;;;;;5113198;28;20252;-70
2023/02/16 02:06:35;;;;;;;8.55;5.82;;;0.30;99.90;;;;;;5113603;28;20213;-70
2023/02/16 02:09:06;;;;;;;7.43;5.28;;;0.20;99.90;;;;;;5112729;28;20203;-69
2023/02/16 02:11:40;;;;;;;6.38;4.03;;;0.20;99.90;;;;;;5113114;28;20544;-71
2023/02/16 02:14:11;;;;;;;6.35;4.60;;;0.20;99.90;;;;;;5112656;27;20195;-70
2023/02/16 02:16:38;;;;;;;8.85;4.60;;;0.20;99.90;;;;;;5112593;28;20636;-70
2023/02/16 02:19:05;;;;;;;6.75;4.88;;;0.20;99.90;;;;;;5112871;28;20245;-70
2023/02/16 02:25:04;;;;;;;7.35;5.18;;;0.10;99.90;;;;;;5112562;28;20234;-70
2023/02/16 02:27:33;;;;;;;8.65;5.38;;;0.10;99.90;;;;;;5112186;28;20223;-70
2023/02/16 02:30:20;;;;;;;8.10;5.32;;;0.10;99.90;;;;;;5112636;28;20252;-69
2023/02/16 02:33:04;;;;;;;11.45;5.43;;;0.10;99.90;;;;;;5112440;28;20702;-69
2023/02/16 02:35:41;;;;;;;10.00;5.32;;;0.00;99.90;;;;;;5111947;27;20210;-70
2023/02/16 02:38:15;;;;;;;7.35;5.80;;;0.00;99.90;;;;;;5112145;28;20607;-70
2023/02/16 02:40:52;;;;;;;7.40;4.65;;;0.00;99.90;;;;;;5112326;28;20203;-70
2023/02/16 02:43:24;;;;;;;7.18;4.85;;;0.00;99.90;;;;;;5111904;28;20226;-69
2023/02/16 02:45:56;;;;;;;7.15;4.13;;;0.00;99.90;;;;;;5112273;28;20203;-68
2023/02/16 02:48:22;;;;;;;6.35;4.65;;;-0.10;99.90;;;;;;5112249;28;20599;-70
2023/02/16 02:53:42;;;;;;;6.40;4.57;;;-0.20;99.90;;;;;;5112078;28;20653;-69
2023/02/16 03:01:51;;;;;;;8.15;5.20;;;-0.20;99.90;;;;;;5111982;28;20256;-69
2023/02/16 03:04:21;;;;;;;5.55;4.25;;;-0.30;99.90;;;;;;5111957;28;20219;-70
2023/02/16 03:06:52;;;;;;;6.63;4.57;;;-0.30;99.90;;;;;;5111784;28;20713;-70
2023/02/16 03:09:20;;;;;;;8.20;4.95;;;-0.30;99.90;;;;;;5111754;28;20206;-69
2023/02/16 03:14:39;;;;;;;7.85;5.60;;;-0.30;99.90;;;;;;5111569;28;20320;-69
2023/02/16 03:31:04;;;;;;;8.80;5.40;;;-0.20;99.90;;;;;;5111709;28;20190;-69
2023/02/16 03:33:31;;;;;;;8.05;4.97;;;-0.20;99.90;;;;;;5111237;28;20260;-68
2023/02/16 03:35:59;;;;;;;7.32;4.97;;;-0.20;99.90;;;;;;5111454;28;20687;-70
2023/02/16 03:38:26;;;;;;;7.38;5.35;;;-0.30;99.90;;;;;;5111253;28;20263;-69
2023/02/16 03:40:53;;;;;;;6.13;4.38;;;-0.30;99.90;;;;;;5111321;28;20572;-68
2023/02/16 03:43:24;;;;;;;9.13;4.85;;;-0.30;99.90;;;;;;5111183;28;20223;-68
2023/02/16 03:45:51;;;;;;;8.57;5.13;;;-0.30;99.90;;;;;;5111342;28;20203;-68
2023/02/16 03:48:19;;;;;;;7.80;4.32;;;-0.30;99.90;;;;;;5111137;28;20203;-68
2023/02/16 03:50:45;;;;;;;5.93;4.38;;;-0.30;99.90;;;;;;5111348;28;20206;-69
2023/02/16 03:53:12;;;;;;;11.55;6.22;;;-0.30;99.90;;;;;;5110889;28;20202;-68
2023/02/16 03:55:41;;;;;;;7.10;4.53;;;-0.30;99.90;;;;;;5111154;28;20772;-68
2023/02/16 03:58:09;;;;;;;5.47;3.90;;;-0.20;99.90;;;;;;5111213;28;20312;-71
2023/02/16 04:00:36;;;;;;;6.50;4.63;;;-0.20;99.90;;;;;;5111365;28;20199;-70
2023/02/16 04:03:04;;;;;;;9.15;5.40;;;-0.20;99.90;;;;;;5111066;28;20215;-72
2023/02/16 04:05:33;;;;;;;5.30;4.80;;;-0.10;99.90;;;;;;5111097;28;20198;-71
2023/02/16 04:08:00;;;;;;;9.95;4.78;;;-0.10;99.90;;;;;;5111372;28;20309;-71
2023/02/16 04:10:27;;;;;;;4.22;3.80;;;-0.10;99.90;;;;;;5110747;28;20233;-69
2023/02/16 04:12:53;;;;;;;6.85;4.63;;;-0.20;99.90;;;;;;5111343;28;20203;-71
2023/02/16 04:15:21;;;;;;;7.43;5.20;;;-0.20;99.90;;;;;;5110547;28;20563;-70
2023/02/16 04:17:48;;;;;;;8.02;5.63;;;-0.20;99.90;;;;;;5110934;28;20476;-71
2023/02/16 04:20:17;;;;;;;6.35;4.57;;;-0.20;99.90;;;;;;5110794;28;20256;-71
2023/02/16 04:22:45;;;;;;;9.02;5.18;;;-0.20;99.90;;;;;;5110742;28;20297;-71
2023/02/16 04:25:12;;;;;;;7.50;4.97;;;-0.20;99.90;;;;;;5110662;28;20199;-71
2023/02/16 04:27:40;;;;;;;7.03;5.30;;;-0.20;99.90;;;;;;5110600;28;20784;-70
2023/02/16 04:30:08;;;;;;;6.78;5.03;;;-0.20;99.90;;;;;;5110793;28;20244;-70
2023/02/16 04:32:35;;;;;;;11.40;5.57;;;-0.10;99.90;;;;;;5110446;28;20678;-70
2023/02/16 04:35:01;;;;;;;9.60;5.65;;;-0.10;99.90;;;;;;5110114;28;20244;-70
2023/02/16 04:37:28;;;;;;;8.75;6.72;;;0.00;99.90;;;;;;5108818;28;20211;-70
2023/02/16 04:39:56;;;;;;;11.32;5.40;;;0.00;99.90;;;;;;5110037;28;20601;-69
2023/02/16 04:42:23;;;;;;;7.95;6.63;;;0.00;99.90;;;;;;5109447;28;20194;-69
2023/02/16 04:44:49;;;;;;;9.68;6.43;;;0.00;99.90;;;;;;5109045;28;20218;-71
2023/02/16 04:47:16;;;;;;;10.30;7.72;;;0.00;99.90;;;;;;5109520;28;20237;-70
2023/02/16 04:49:43;;;;;;;11.25;7.80;;;0.00;99.90;;;;;;5109181;28;20195;-71
2023/02/16 04:52:12;;;;;;;11.20;6.82;;;0.00;99.90;;;;;;5109501;28;20256;-70
2023/02/16 04:54:38;;;;;;;8.07;5.80;;;0.00;99.90;;;;;;5109510;28;20197;-70
2023/02/16 04:57:07;;;;;;;6.13;5.15;;;0.00;99.90;;;;;;5110230;28;20207;-71
2023/02/16 04:59:34;;;;;;;6.13;5.05;;;-0.10;99.90;;;;;;5109534;28;20203;-71
2023/02/16 05:02:00;;;;;;;7.80;6.20;;;-0.10;99.90;;;;;;5113187;28;20589;-70
2023/02/16 05:04:27;;;;;;;8.38;5.82;;;-0.10;99.90;;;;;;5112598;28;20219;-70
2023/02/16 05:06:54;;;;;;;6.80;5.57;;;-0.10;99.90;;;;;;5113075;28;20207;-71
2023/02/16 05:09:21;;;;;;;8.85;6.45;;;-0.10;99.90;;;;;;5112795;28;20195;-70
2023/02/16 05:14:44;;;;;;;9.73;6.20;;;0.00;99.90;;;;;;5113423;28;20272;-70
2023/02/16 05:17:14;;;;;;;8.65;5.47;;;0.10;99.90;;;;;;5110995;28;20239;-70
2023/02/16 05:19:42;;;;;;;9.73;5.75;;;0.30;99.90;;;;;;5113025;28;20602;-70
2023/02/16 05:22:09;;;;;;;8.98;5.75;;;0.40;99.90;;;;;;5113940;28;20187;-71
2023/02/16 05:24:36;;;;;;;9.90;4.90;;;0.50;99.90;;;;;;5112204;28;20480;-71
2023/02/16 05:27:04;;;;;;;10.10;5.70;;;0.70;99.90;;;;;;5113285;27;20211;-71
2023/02/16 05:29:31;;;;;;;8.77;5.18;;;0.80;99.90;;;;;;5113321;28;20202;-71
2023/02/16 05:31:59;;;;;;;8.93;5.60;;;1.00;99.90;;;;;;5114075;28;20252;-69
2023/02/16 05:34:26;;;;;;;8.57;5.53;;;1.10;99.90;;;;;;5113506;28;20569;-68
2023/02/16 05:36:53;;;;;;;11.55;5.53;;;1.20;99.90;;;;;;5113649;28;20219;-71
2023/02/16 05:39:21;;;;;;;6.00;4.57;;;1.30;99.90;;;;;;5113407;27;20983;-71
2023/02/16 05:41:47;;;;;;;6.00;4.20;;;1.40;99.90;;;;;;5113579;28;20199;-69
2023/02/16 05:44:14;;;;;;;10.35;5.40;;;1.50;99.90;;;;;;5113463;28;20230;-69
2023/02/16 05:46:41;;;;;;;9.18;5.28;;;1.70;99.90;;;;;;5113409;28;20223;-70
2023/02/16 05:49:10;;;;;;;6.30;4.20;;;1.80;99.90;;;;;;5113444;27;20203;-69
2023/02/16 05:51:37;;;;;;;6.03;5.43;;;1.90;99.90;;;;;;5113464;28;20203;-70
2023/02/16 05:54:04;;;;;;;6.45;4.32;;;2.00;99.90;;;;;;5113457;28;20613;-68
2023/02/16 05:56:32;;;;;;;8.32;4.68;;;2.20;99.90;;;;;;5113342;28;20234;-69
2023/02/16 05:58:59;;;;;;;6.82;5.00;;;2.20;99.90;;;;;;5113286;27;20600;-69
2023/02/16 06:01:26;;;;;;;6.68;5.35;;;2.20;99.90;;;;;;5113344;28;20227;-69
2023/02/16 06:03:53;;;;;;;9.18;5.20;;;2.00;99.90;;;;;;5112885;28;20225;-70
2023/02/16 06:06:21;;;;;;;8.93;5.40;;;1.90;99.90;;;;;;5113249;28;20226;-70
2023/02/16 06:08:48;;;;;;;10.18;4.95;;;1.70;99.90;;;;;;5112930;28;20256;-69
2023/02/16 06:14:07;;;;;;;10.48;4.30;;;1.50;99.90;;;;;;5101867;28;20244;-69
2023/02/16 06:16:35;;;;;;;9.38;5.40;;;1.30;99.90;;;;;;5112777;28;20215;-70
2023/02/16 06:19:02;;;;;;;6.18;4.60;;;1.20;99.90;;;;;;5113055;28;20302;-69
2023/02/16 06:21:31;;;;;;;7.22;4.78;;;1.20;99.90;;;;;;5112940;28;20238;-68
2023/02/16 06:23:58;;;;;;;6.32;5.10;;;1.10;99.90;;;;;;5112659;28;20631;-70
2023/02/16 06:26:25;;;;;;;6.35;5.32;;;1.00;99.90;;;;;;5112513;28;20223;-68
2023/02/16 06:28:52;;;;;;;9.32;6.18;;;0.90;99.90;;;;;;5112786;28;20672;-70
2023/02/16 06:31:19;;;;;;;7.80;4.35;;;0.90;99.90;;;;;;5113126;28;20221;-69
2023/02/16 06:33:46;;;;;;;6.60;4.95;;;0.80;99.90;;;;;;5112162;28;20217;-69
2023/02/16 06:36:13;;;;;;;9.50;5.43;;;0.80;99.90;;;;;;5112717;28;20219;-69
2023/02/16 06:38:41;;;;;;;8.30;4.50;;;0.70;99.90;;;;;;5112233;28;20210;-69
2023/02/16 06:41:08;;;;;;;10.10;5.50;;;0.70;99.90;;;;;;5112792;27;20203;-69
2023/02/16 06:43:35;;;;;;;7.93;5.72;;;0.70;99.90;;;;;;5111819;28;20223;-69
2023/02/16 06:46:02;;;;;;;6.40;4.45;;;0.60;99.90;;;;;;5112634;28;20206;-69
2023/02/16 06:48:29;;;;;;;6.72;4.55;;;0.60;99.90;;;;;;5112028;28;20669;-69
2023/02/16 06:50:56;;;;;;;6.60;4.55;;;0.50;99.90;;;;;;5112187;27;20739;-68
2023/02/16 06:53:24;;;;;;;9.80;5.50;;;0.50;99.90;;;;;;5111895;28;20571;-69
2023/02/16 06:55:52;;;;;;;9.35;4.93;;;0.50;99.90;;;;;;5112030;28;20302;-69
2023/02/16 06:58:19;;;;;;;5.47;4.60;;;0.50;99.90;;;;;;5111988;28;20206;-69
2023/02/16 07:00:45;;;;;;;9.65;5.13;;;0.40;99.90;;;;;;5111849;28;20718;-69
2023/02/16 07:03:12;;;;;;;7.47;5.80;;;0.40;99.90;;;;;;5112316;28;20399;-70
2023/02/16 07:05:38;;;;;;;7.72;5.03;;;0.30;99.90;;;;;;5111427;28;20635;-69
2023/02/16 07:08:05;;;;;;;11.32;5.13;;;0.40;99.90;;;;;;5111636;27;20621;-70
2023/02/16 07:10:32;;;;;;;8.57;5.40;;;0.40;99.90;;;;;;5111755;28;20568;-70
2023/02/16 07:13:00;;;;;;;8.38;4.30;;;0.30;99.90;;;;;;5111783;28;20579;-69
2023/02/16 07:15:27;;;;;;;10.23;5.30;;;0.30;99.90;;;;;;5111388;28;20252;-70
2023/02/16 07:17:53;;;;;;;7.75;5.53;;;0.30;99.90;;;;;;5111695;28;20705;-69
2023/02/16 07:20:20;;;;;;;8.82;5.18;;;0.30;99.90;;;;;;5111253;28;20245;-69
2023/02/16 07:22:47;;;;;;;5.90;5.00;;;0.30;99.90;;;;;;5110630;28;20203;-69
2023/02/16 07:25:13;;;;;;;5.75;4.70;;;0.40;99.90;;;;;;5111017;28;20275;-69
2023/02/16 07:27:40;;;;;;;10.95;6.00;;;0.40;99.90;;;;;;5111420;28;20730;-72
2023/02/16 07:30:10;;;;;;;9.75;6.18;;;0.40;99.90;;;;;;5111450;28;20206;-69
2023/02/16 07:32:36;;;;;;;10.50;6.07;;;0.50;99.90;;;;;;5111262;28;20202;-70
2023/02/16 07:35:03;;;;;;;10.10;6.30;;;0.60;99.90;;;;;;5111117;28;20199;-69
2023/02/16 07:37:30;;;;;;;10.05;6.78;;;0.70;99.90;;;;;;5111046;28;20742;-70
2023/02/16 07:39:57;;;;;;;9.48;6.57;;;1.00;99.90;;;;;;5111227;28;20622;-70
2023/02/16 07:42:23;;;;;;;10.18;6.50;;;1.60;99.90;;;;;;5111407;28;20610;-70
2023/02/16 07:44:50;;;;;;;9.57;6.75;;;2.90;99.90;;;;;;5110940;28;20744;-71
2023/02/16 07:47:18;;;;;;;8.48;5.63;;;4.60;99.90;;;;;;5110993;28;20226;-68
2023/02/16 07:49:45;;;;;;;10.00;6.35;;;6.40;99.90;;;;;;5111338;28;20237;-71
2023/02/16 07:52:11;;;;;;;8.68;5.90;;;8.00;99.90;;;;;;5110961;28;20281;-70
2023/02/16 07:54:38;;;;;;;7.20;5.65;;;9.40;99.90;;;;;;5110786;28;20646;-71
2023/02/16 07:57:05;;;;;;;8.75;5.75;;;10.40;99.90;;;;;;5110917;28;20223;-70
2023/02/16 07:59:31;;;;;;;7.40;5.15;;;11.30;99.00;;;;;;5110685;28;20415;-70
2023/02/16 08:01:58;;;;;;;8.73;6.00;;;12.00;98.10;;;;;;5111189;28;20207;-70
2023/02/16 08:04:26;;;;;;;8.05;5.65;;;12.70;96.60;;;;;;5110337;28;20211;-70
2023/02/16 08:06:53;;;;;;;9.15;6.43;;;13.10;95.60;;;;;;5110908;28;20223;-71
2023/02/16 08:09:19;;;;;;;8.63;5.50;;;13.70;94.90;;;;;;5110656;28;20596;-71
2023/02/16 08:11:46;;;;;;;8.57;6.20;;;14.50;94.20;;;;;;5110927;28;20222;-71
2023/02/16 08:14:15;;;;;;;9.13;6.60;;;15.10;93.10;;;;;;5110406;28;20449;-71
2023/02/16 08:16:42;;;;;;;6.30;5.53;;;15.50;92.40;;;;;;5110624;28;20607;-71
2023/02/16 08:19:10;;;;;;;7.93;6.13;;;15.50;91.90;;;;;;5110647;28;20460;-70
2023/02/16 08:21:39;;;;;;;7.60;5.03;;;15.80;92.10;;;;;;5110474;28;21051;-69
2023/02/16 08:24:07;;;;;;;8.13;6.20;;;16.40;91.60;;;;;;5110454;28;20465;-70
2023/02/16 08:26:36;;;;;;;7.13;6.10;;;16.70;89.70;;;;;;5110350;28;20519;-70
2023/02/16 08:29:05;;;;;;;8.80;6.30;;;16.90;90.50;;;;;;5110901;28;21020;-71
2023/02/16 08:31:34;;;;;;;7.10;6.17;;;17.40;90.00;;;;;;5110583;28;20548;-71
2023/02/16 08:34:01;;;;;;;8.60;6.47;;;17.80;88.00;;;;;;5110139;28;20461;-70
2023/02/16 08:36:33;;;;;;;9.33;6.23;;;17.70;88.50;;;;;;5114498;28;20846;-69
2023/02/16 08:39:02;;;;;;;7.80;6.10;;;18.00;87.60;;;;;;5114553;28;20463;-70
2023/02/16 08:41:32;;;;;;;9.07;6.37;;;18.50;86.80;;;;;;5114673;28;20457;-70
2023/02/16 08:44:00;;;;;;;7.90;6.40;;;19.10;85.10;;;;;;5092205;28;20527;-70
2023/02/16 08:46:28;;;;;;;7.13;5.60;;;19.50;83.10;;;;;;5107140;28;20579;-70
2023/02/16 08:48:58;;;;;;;8.40;6.33;;;19.90;82.10;;;;;;5114018;28;20514;-70
2023/02/16 08:51:27;;;;;;;10.23;5.40;;;19.80;82.00;;;;;;5113948;28;20589;-70
2023/02/16 08:53:54;;;;;;;9.60;6.07;;;19.80;78.50;;;;;;5113963;28;20513;-70
2023/02/16 08:56:23;;;;;;;7.27;6.17;;;20.20;77.80;;;;;;5113621;28;20922;-71
2023/02/16 08:58:50;;;;;;;8.40;5.83;;;18.50;78.10;;;;;;5113495;28;20464;-69
2023/02/16 09:01:16;;;;;;;6.80;5.50;;;18.60;80.00;;;;;;5114116;28;20456;-71
2023/02/16 09:03:45;;;;;;;7.13;5.07;;;19.10;77.60;;;;;;5113562;28;20456;-71
2023/02/16 09:06:14;;;;;;;9.07;5.63;;;19.10;78.30;;;;;;5113672;28;20737;-70
2023/02/16 09:08:41;;;;;;;9.20;5.77;;;18.80;77.60;;;;;;5113059;28;20460;-70
2023/02/16 09:11:11;;;;;;;7.97;5.70;;;18.50;78.00;;;;;;5114009;28;20548;-71
2023/02/16 09:13:40;;;;;;;6.30;4.80;;;18.20;77.20;;;;;;5112762;28;20963;-71
2023/02/16 09:16:10;;;;;;;7.03;5.43;;;18.00;78.40;;;;;;5113789;28;20539;-70
2023/02/16 09:18:37;;;;;;;7.93;4.90;;;18.00;77.60;;;;;;5113338;28;20717;-71
2023/02/16 09:21:06;;;;;;;6.20;5.53;;;18.30;77.30;;;;;;5113247;28;20951;-71
2023/02/16 09:23:34;;;;;;;5.60;4.87;;;19.00;76.10;;;;;;5113389;28;20983;-68
2023/02/16 09:26:01;;;;;;;6.63;4.23;;;19.60;76.80;;;;;;5113456;28;20488;-70
2023/02/16 09:28:29;;;;;;;7.07;5.43;;;19.60;74.70;;;;;;5113317;28;20484;-70
2023/02/16 09:30:57;;;;;;;6.13;5.37;;;19.50;74.20;;;;;;5113537;28;20456;-69
2023/02/16 09:33:25;;;;;;;6.67;5.17;;;19.40;74.40;;;;;;5112967;28;20579;-70
2023/02/16 09:35:51;;;;;;;6.17;4.73;;;20.40;75.10;;;;;;5112889;28;20444;-71
2023/02/16 09:38:18;;;;;;;7.33;5.23;;;20.80;73.30;;;;;;5113173;28;20561;-71
2023/02/16 09:40:45;;;;;;;7.03;5.00;;;20.50;71.00;;;;;;5113245;28;20461;-71
2023/02/16 09:43:26;;;;;;;6.97;5.37;;;20.20;73.30;;;;;;5112904;28;20460;-71
2023/02/16 09:45:56;;;;;;;6.90;5.23;;;20.60;72.80;;;;;;5112009;28;20488;-71
2023/02/16 09:48:33;;;;;;;6.43;4.67;;;21.10;70.90;;;;;;5113093;28;20889;-71
2023/02/16 09:51:01;;;;;;;7.33;5.37;;;20.90;70.60;;;;;;5113081;28;20464;-71
2023/02/16 09:53:38;;;;;;;8.63;4.40;;;20.80;70.70;;;;;;5113083;28;20457;-69
2023/02/16 09:56:15;;;;;;;6.20;4.43;;;20.80;69.10;;;;;;5112616;28;20468;-71
2023/02/16 09:58:46;;;;;;;5.30;4.80;;;20.70;69.20;;;;;;5112386;27;20858;-70
2023/02/16 10:01:20;;;;;;;5.90;4.40;;;20.70;70.00;;;;;;5113003;28;20464;-71
2023/02/16 10:04:00;;;;;;;4.23;3.77;;;21.20;70.10;;;;;;5112323;28;20461;-71
2023/02/16 10:06:48;;;;;;;6.10;4.17;;;21.40;67.70;;;;;;5112533;28;20484;-71
2023/02/16 10:09:17;;;;;;;5.87;4.40;;;21.20;68.50;;;;;;5113061;28;20518;-70
2023/02/16 10:11:48;;;;;;;6.63;4.67;;;21.70;68.50;;;;;;5111850;28;20460;-71
2023/02/16 10:14:24;;;;;;;4.97;3.93;;;22.20;67.70;;;;;;5112839;28;20464;-70
2023/02/16 10:17:00;;;;;;;4.60;3.97;;;23.00;67.20;;;;;;5102384;28;20480;-71
2023/02/16 10:19:35;;;;;;;5.03;4.03;;;21.90;66.40;;;;;;5095769;28;20469;-70
2023/02/16 10:22:05;;;;;;;5.43;4.23;;;21.20;66.70;;;;;;5106907;28;20472;-70
2023/02/16 10:24:42;;;;;;;5.13;4.00;;;21.00;68.60;;;;;;5111575;28;20468;-71
2023/02/16 10:27:13;;;;;;;4.13;3.73;;;22.00;67.80;;;;;;5112138;28;20484;-70
2023/02/16 10:29:40;;;;;;;5.20;4.53;;;23.60;66.80;;;;;;5111742;28;20457;-70
2023/02/16 10:32:15;;;;;;;4.20;3.80;;;25.10;65.30;;;;;;5112246;28;20464;-71
2023/02/16 10:34:50;;;;;;;5.00;3.63;;;25.60;63.00;;;;;;5096851;28;20521;-70
2023/02/16 10:37:27;;;;;;;4.63;4.20;;;26.00;61.90;;;;;;5107098;28;20481;-69
2023/02/16 10:40:03;;;;;;;4.27;3.77;;;26.40;62.70;;;;;;5105837;28;20456;-69
2023/02/16 10:42:36;;;;;;;5.27;3.77;;;26.70;62.80;;;;;;5112120;28;20475;-69
2023/02/16 10:45:20;;;;;;;4.30;3.90;;;26.50;60.00;;;;;;5112432;28;20979;-69
2023/02/16 10:47:48;;;;;;;4.80;4.33;;;26.50;61.10;;;;;;5111567;28;20906;-68
2023/02/16 10:50:22;;;;;;;4.70;3.83;;;27.60;59.40;;;;;;5112401;28;20461;-69
2023/02/16 10:52:51;;;;;;;4.47;3.43;;;27.90;59.10;;;;;;5112282;28;20810;-69
2023/02/16 10:55:17;;;;;;;4.50;3.63;;;28.40;59.00;;;;;;5111885;28;20467;-69
2023/02/16 10:57:52;;;;;;;4.60;3.67;;;29.00;58.10;;;;;;5110735;28;20549;-69
2023/02/16 11:00:27;;;;;;;5.40;3.60;;;28.40;58.20;;;;;;5111812;28;20466;-69
2023/02/16 11:02:55;;;;;;;3.63;3.33;;;28.00;57.30;;;;;;5112589;28;20455;-70
2023/02/16 11:05:33;;;;;;;4.03;3.63;;;27.60;58.30;;;;;;5110321;28;20520;-69
2023/02/16 11:08:01;;;;;;;4.30;3.60;;;27.80;57.10;;;;;;5097288;28;20987;-69
2023/02/16 11:10:37;;;;;;;4.63;4.07;;;28.40;57.60;;;;;;5101312;28;20851;-69
2023/02/16 11:13:04;;;;;;;4.53;3.57;;;28.60;56.50;;;;;;5100209;28;20862;-69
2023/02/16 11:15:31;;;;;;;4.17;3.77;;;28.20;56.20;;;;;;5101674;28;20457;-69
2023/02/16 11:18:03;;;;;;;4.20;3.70;;;28.50;56.30;;;;;;5103702;28;20484;-69
2023/02/16 11:20:33;;;;;;;4.37;3.70;;;28.40;56.90;;;;;;5102617;27;20532;-70
2023/02/16 11:23:13;;;;;;;3.40;3.10;;;28.60;55.70;;;;;;5100923;28;20476;-70
2023/02/16 11:25:41;;;;;;;3.80;3.27;;;28.60;57.00;;;;;;5102876;28;20518;-69
2023/02/16 11:28:08;;;;;;;3.37;3.07;;;27.60;56.40;;;;;;5103630;28;20654;-69
2023/02/16 11:30:37;;;;;;;4.10;3.70;;;27.50;58.30;;;;;;5102685;28;20461;-69
2023/02/16 11:33:18;;;;;;;7.63;4.40;;;27.20;56.90;;;;;;5110504;28;20457;-69
2023/02/16 11:35:46;;;;;;;4.30;3.90;;;26.60;56.80;;;;;;5095227;28;20937;-72
2023/02/16 11:38:28;;;;;;;4.17;3.77;;;25.50;58.30;;;;;;5103994;28;20481;-71
2023/02/16 11:40:56;;;;;;;4.27;3.80;;;25.50;58.10;;;;;;5107161;28;20469;-72
2023/02/16 11:43:27;;;;;;;3.93;3.53;;;25.00;58.70;;;;;;5101655;28;20450;-71
2023/02/16 11:45:59;;;;;;;3.80;3.27;;;24.90;59.90;;;;;;5104232;28;20494;-68
2023/02/16 11:48:27;;;;;;;3.77;3.47;;;25.80;59.90;;;;;;5103965;28;20456;-69
2023/02/16 11:51:01;;;;;;;4.93;3.80;;;26.80;58.00;;;;;;5104586;28;20535;-69
2023/02/16 11:53:31;;;;;;;5.93;3.53;;;26.70;57.50;;;;;;5110664;28;20456;-70
2023/02/16 11:56:13;;;;;;;4.10;3.03;;;26.50;58.50;;;;;;5109875;28;20874;-70
2023/02/16 11:58:40;;;;;;;3.30;2.97;;;26.50;57.70;;;;;;5104920;28;20517;-69
2023/02/16 12:01:22;;;;;;;3.90;3.50;;;26.50;59.60;;;;;;5101217;28;20461;-68
2023/02/16 12:04:02;;;;;;;4.30;3.30;;;27.20;58.20;;;;;;5097657;28;20955;-68
2023/02/16 12:06:47;;;;;;;4.10;3.70;;;27.80;57.30;;;;;;5105202;28;20483;-69
2023/02/16 12:09:24;;;;;;;4.20;3.80;;;27.90;57.20;;;;;;5101834;28;20481;-69
2023/02/16 12:12:01;;;;;;;3.47;3.00;;;28.00;57.10;;;;;;5098148;28;20823;-71
2023/02/16 12:14:38;;;;;;;3.37;3.07;;;27.70;57.00;;;;;;5109761;28;20480;-70
2023/02/16 12:17:34;;;;;;;3.07;2.77;;;27.80;58.00;;;;;;5105440;28;20525;-70
2023/02/16 12:20:13;;;;;;;3.03;2.70;;;27.90;58.00;;;;;;5106074;28;20879;-70
2023/02/16 12:22:46;;;;;;;7.43;2.77;;;28.00;57.70;;;;;;5100583;28;20452;-70
2023/02/16 12:25:26;;;;;;;5.00;3.17;;;28.40;57.20;;;;;;5101813;28;20457;-70
2023/02/16 12:28:00;;;;;;;3.03;2.73;;;28.50;57.10;;;;;;5108155;28;20476;-70
2023/02/16 12:30:38;;;;;;;3.50;3.20;;;28.40;56.80;;;;;;5110721;28;20461;-69
2023/02/16 12:33:16;;;;;;;2.87;2.50;;;27.60;57.60;;;;;;5104893;28;20456;-69
2023/02/16 12:36:19;;;;;;;3.30;3.00;;;26.60;58.60;;;;;;5109551;28;20893;-67
2023/02/16 12:38:57;;;;;;;3.57;2.90;;;26.00;60.10;;;;;;5105295;28;20543;-68
2023/02/16 12:41:35;;;;;;;2.90;2.50;;;25.90;59.50;;;;;;5104400;28;20716;-69
2023/02/16 12:44:05;;;;;;;3.47;3.17;;;25.80;59.60;;;;;;5107291;28;20455;-70
2023/02/16 12:46:38;;;;;;;3.50;3.20;;;26.00;60.00;;;;;;5106490;28;20863;-70
2023/02/16 12:49:12;;;;;;;4.93;3.70;;;25.60;59.80;;;;;;5108567;28;20555;-69
2023/02/16 12:51:42;;;;;;;3.40;2.90;;;25.20;60.80;;;;;;5106658;28;20476;-70
2023/02/16 12:54:19;;;;;;;3.23;2.90;;;24.90;61.10;;;;;;5107272;28;20488;-69
2023/02/16 12:56:51;;;;;;;3.63;2.83;;;24.70;61.70;;;;;;5107661;28;20472;-70
2023/02/16 12:59:23;;;;;;;3.60;3.10;;;23.30;63.20;;;;;;5105465;28;20460;-70
2023/02/16 13:01:52;;;;;;;2.90;2.60;;;22.00;64.80;;;;;;5100296;28;20533;-69
2023/02/16 13:04:25;;;;;;;4.13;2.73;;;21.60;66.10;;;;;;5107851;28;20453;-68
2023/02/16 13:06:57;;;;;;;3.27;2.73;;;21.70;65.10;;;;;;5108008;28;20911;-69
2023/02/16 13:09:36;;;;;;;3.57;3.27;;;22.30;65.00;;;;;;5106305;28;20475;-69
2023/02/16 13:12:11;;;;;;;4.00;3.17;;;22.70;64.80;;;;;;5109514;28;20463;-70
2023/02/16 13:14:42;;;;;;;3.50;3.17;;;22.20;64.20;;;;;;5108129;28;20539;-70
2023/02/16 13:17:14;;;;;;;3.33;2.80;;;21.30;66.00;;;;;;5108346;28;20472;-70
2023/02/16 13:19:42;;;;;;;3.03;2.73;;;21.30;65.90;;;;;;5108304;28;20460;-69
2023/02/16 13:22:44;;;;;;;7.80;3.37;;;20.80;66.40;;;;;;5111652;28;20982;-69
2023/02/16 13:25:36;;;;;;;2.43;2.07;;;20.40;67.30;;;;;;5105065;28;20452;-69
2023/02/16 13:28:15;;;;;;;2.57;2.30;;;20.50;68.60;;;;;;5108875;28;20851;-69
2023/02/16 13:31:05;;;;;;;3.50;2.67;;;20.80;66.60;;;;;;5112700;28;20875;-70
2023/02/16 13:33:54;;;;;;;2.63;2.43;;;20.50;67.10;;;;;;5112552;28;20456;-70
2023/02/16 13:36:54;;;;;;;2.60;2.33;;;20.50;67.80;;;;;;5108644;28;21057;-69
2023/02/16 13:39:40;;;;;;;2.80;2.57;;;20.70;67.70;;;;;;5099158;28;21050;-68
2023/02/16 13:42:50;;;;;;;3.03;2.73;;;21.50;67.70;;;;;;5101595;28;20458;-70
2023/02/16 13:45:19;;;;;;;4.63;2.50;;;22.00;65.60;;;;;;5101359;28;20492;-69
2023/02/16 13:47:46;;;;;;;2.60;2.40;;;22.00;66.20;;;;;;5109127;28;20865;-69
2023/02/16 13:50:30;;;;;;;2.63;2.23;;;22.00;66.40;;;;;;5101646;28;20828;-69
2023/02/16 13:53:08;;;;;;;2.60;1.93;;;21.80;66.40;;;;;;5099135;28;20460;-69